sensor_id;sensor_type;location;lat;lon;timestamp;pressure;altitude;pressure_sealevel;temperature;humidity
76137;BME280;68622;53.128;17.966;2023-07-28T00:00:35;100189.81;;;18.68;53.22
76137;BME280;68622;53.128;17.966;2023-07-28T00:03:22;100187.38;;;18.67;53.57
76137;BME280;68622;53.128;17.966;2023-07-28T00:05:48;100187.14;;;18.67;53.33
76137;BME280;68622;53.128;17.966;2023-07-28T00:08:16;100181.36;;;18.65;53.65
76137;BME280;68622;53.128;17.966;2023-07-28T00:10:42;100180.97;;;18.62;54.18
76137;BME280;68622;53.128;17.966;2023-07-28T00:13:09;100176.19;;;18.62;53.90
76137;BME280;68622;53.128;17.966;2023-07-28T00:15:36;100172.20;;;18.60;54.11
76137;BME280;68622;53.128;17.966;2023-07-28T00:18:02;100176.39;;;18.58;54.40
76137;BME280;68622;53.128;17.966;2023-07-28T00:20:29;100176.88;;;18.57;54.39
76137;BME280;68622;53.128;17.966;2023-07-28T00:22:55;100173.48;;;18.56;54.34
76137;BME280;68622;53.128;17.966;2023-07-28T00:25:22;100172.45;;;18.55;54.45
76137;BME280;68622;53.128;17.966;2023-07-28T00:27:48;100176.76;;;18.55;54.08
76137;BME280;68622;53.128;17.966;2023-07-28T00:30:15;100179.80;;;18.56;54.11
76137;BME280;68622;53.128;17.966;2023-07-28T00:32:41;100178.14;;;18.52;55.21
76137;BME280;68622;53.128;17.966;2023-07-28T00:35:09;100177.83;;;18.50;54.83
76137;BME280;68622;53.128;17.966;2023-07-28T00:37:36;100174.58;;;18.43;55.17
76137;BME280;68622;53.128;17.966;2023-07-28T00:40:03;100177.86;;;18.44;55.07
76137;BME280;68622;53.128;17.966;2023-07-28T00:42:30;100170.36;;;18.44;54.89
76137;BME280;68622;53.128;17.966;2023-07-28T00:44:57;100168.73;;;18.45;54.93
76137;BME280;68622;53.128;17.966;2023-07-28T00:47:24;100170.91;;;18.48;54.88
76137;BME280;68622;53.128;17.966;2023-07-28T00:49:50;100163.75;;;18.45;55.55
76137;BME280;68622;53.128;17.966;2023-07-28T00:52:17;100162.65;;;18.40;55.75
76137;BME280;68622;53.128;17.966;2023-07-28T00:54:44;100153.41;;;18.37;56.15
76137;BME280;68622;53.128;17.966;2023-07-28T00:57:10;100151.73;;;18.33;56.17
76137;BME280;68622;53.128;17.966;2023-07-28T00:59:37;100149.10;;;18.27;56.60
76137;BME280;68622;53.128;17.966;2023-07-28T01:02:04;100146.11;;;18.25;56.60
76137;BME280;68622;53.128;17.966;2023-07-28T01:04:31;100139.02;;;18.22;56.86
76137;BME280;68622;53.128;17.966;2023-07-28T01:07:23;100132.58;;;18.20;56.94
76137;BME280;68622;53.128;17.966;2023-07-28T01:10:01;100131.96;;;18.06;57.89
76137;BME280;68622;53.128;17.966;2023-07-28T01:12:28;100135.08;;;18.12;57.55
76137;BME280;68622;53.128;17.966;2023-07-28T01:14:55;100132.48;;;18.12;56.86
76137;BME280;68622;53.128;17.966;2023-07-28T01:17:21;100127.23;;;18.16;56.84
76137;BME280;68622;53.128;17.966;2023-07-28T01:19:51;100123.95;;;18.19;56.55
76137;BME280;68622;53.128;17.966;2023-07-28T01:28:05;100120.02;;;18.26;57.36
76137;BME280;68622;53.128;17.966;2023-07-28T01:30:32;100118.66;;;18.28;57.16
76137;BME280;68622;53.128;17.966;2023-07-28T01:32:59;100115.26;;;18.28;57.14
76137;BME280;68622;53.128;17.966;2023-07-28T01:35:26;100114.14;;;18.31;56.73
76137;BME280;68622;53.128;17.966;2023-07-28T01:37:53;100115.87;;;18.34;56.72
76137;BME280;68622;53.128;17.966;2023-07-28T01:40:19;100114.48;;;18.29;57.36
76137;BME280;68622;53.128;17.966;2023-07-28T01:42:46;100113.85;;;18.30;56.88
76137;BME280;68622;53.128;17.966;2023-07-28T01:45:13;100110.28;;;18.30;57.05
76137;BME280;68622;53.128;17.966;2023-07-28T01:47:40;100106.66;;;18.24;57.63
76137;BME280;68622;53.128;17.966;2023-07-28T01:50:06;100107.95;;;18.21;58.00
76137;BME280;68622;53.128;17.966;2023-07-28T01:52:33;100105.37;;;18.22;57.43
76137;BME280;68622;53.128;17.966;2023-07-28T01:54:59;100105.05;;;18.22;57.05
76137;BME280;68622;53.128;17.966;2023-07-28T01:57:27;100103.70;;;18.23;57.92
76137;BME280;68622;53.128;17.966;2023-07-28T01:59:54;100099.09;;;18.23;57.13
76137;BME280;68622;53.128;17.966;2023-07-28T02:02:21;100092.11;;;18.20;58.64
76137;BME280;68622;53.128;17.966;2023-07-28T02:04:47;100089.59;;;18.16;58.72
76137;BME280;68622;53.128;17.966;2023-07-28T02:07:14;100085.98;;;18.14;58.20
76137;BME280;68622;53.128;17.966;2023-07-28T02:09:41;100076.82;;;18.13;58.49
76137;BME280;68622;53.128;17.966;2023-07-28T02:12:07;100077.07;;;18.13;58.19
76137;BME280;68622;53.128;17.966;2023-07-28T02:14:34;100075.33;;;18.15;58.06
76137;BME280;68622;53.128;17.966;2023-07-28T02:17:01;100073.98;;;18.17;58.30
76137;BME280;68622;53.128;17.966;2023-07-28T02:19:28;100072.65;;;18.16;59.96
76137;BME280;68622;53.128;17.966;2023-07-28T02:21:54;100071.80;;;18.14;59.79
76137;BME280;68622;53.128;17.966;2023-07-28T02:24:21;100066.88;;;18.10;60.25
76137;BME280;68622;53.128;17.966;2023-07-28T02:26:47;100071.89;;;18.08;59.69
76137;BME280;68622;53.128;17.966;2023-07-28T02:29:14;100069.89;;;18.06;59.80
76137;BME280;68622;53.128;17.966;2023-07-28T02:31:40;100072.27;;;18.05;59.53
76137;BME280;68622;53.128;17.966;2023-07-28T02:34:07;100071.45;;;18.05;59.12
76137;BME280;68622;53.128;17.966;2023-07-28T02:36:33;100065.70;;;18.05;59.33
76137;BME280;68622;53.128;17.966;2023-07-28T02:39:00;100064.20;;;18.04;59.06
76137;BME280;68622;53.128;17.966;2023-07-28T02:41:27;100064.36;;;18.03;59.20
76137;BME280;68622;53.128;17.966;2023-07-28T02:43:53;100063.63;;;18.02;59.98
76137;BME280;68622;53.128;17.966;2023-07-28T02:46:20;100064.66;;;18.00;60.07
76137;BME280;68622;53.128;17.966;2023-07-28T02:48:47;100060.91;;;18.00;60.01
76137;BME280;68622;53.128;17.966;2023-07-28T02:51:13;100061.72;;;18.01;59.66
76137;BME280;68622;53.128;17.966;2023-07-28T02:53:40;100053.98;;;18.01;60.38
76137;BME280;68622;53.128;17.966;2023-07-28T02:56:06;100053.90;;;18.01;60.48
76137;BME280;68622;53.128;17.966;2023-07-28T02:58:33;100056.86;;;17.97;60.51
76137;BME280;68622;53.128;17.966;2023-07-28T03:00:59;100061.11;;;17.99;60.39
76137;BME280;68622;53.128;17.966;2023-07-28T03:03:32;100059.45;;;17.97;61.29
76137;BME280;68622;53.128;17.966;2023-07-28T03:05:59;100059.29;;;17.96;61.75
76137;BME280;68622;53.128;17.966;2023-07-28T03:08:26;100053.04;;;17.94;61.90
76137;BME280;68622;53.128;17.966;2023-07-28T03:10:57;100050.25;;;17.90;61.96
76137;BME280;68622;53.128;17.966;2023-07-28T03:13:24;100050.69;;;17.91;61.50
76137;BME280;68622;53.128;17.966;2023-07-28T03:15:51;100050.88;;;17.90;61.00
76137;BME280;68622;53.128;17.966;2023-07-28T03:18:19;100048.73;;;17.92;60.66
76137;BME280;68622;53.128;17.966;2023-07-28T03:20:46;100044.69;;;17.93;60.46
76137;BME280;68622;53.128;17.966;2023-07-28T03:23:13;100045.63;;;17.90;61.71
76137;BME280;68622;53.128;17.966;2023-07-28T03:25:40;100046.19;;;17.90;61.39
76137;BME280;68622;53.128;17.966;2023-07-28T03:28:07;100044.83;;;17.84;62.07
76137;BME280;68622;53.128;17.966;2023-07-28T03:30:33;100045.56;;;17.87;61.62
76137;BME280;68622;53.128;17.966;2023-07-28T03:33:00;100041.52;;;17.84;62.05
76137;BME280;68622;53.128;17.966;2023-07-28T03:35:27;100041.33;;;17.87;61.45
76137;BME280;68622;53.128;17.966;2023-07-28T03:38:01;100040.08;;;17.91;61.30
76137;BME280;68622;53.128;17.966;2023-07-28T03:40:27;100037.94;;;17.93;61.60
76137;BME280;68622;53.128;17.966;2023-07-28T03:42:54;100035.95;;;17.94;61.86
76137;BME280;68622;53.128;17.966;2023-07-28T03:45:21;100038.67;;;17.96;61.87
76137;BME280;68622;53.128;17.966;2023-07-28T03:47:48;100037.38;;;17.97;61.30
76137;BME280;68622;53.128;17.966;2023-07-28T03:50:15;100038.91;;;18.00;60.96
76137;BME280;68622;53.128;17.966;2023-07-28T03:52:41;100034.95;;;18.01;61.13
76137;BME280;68622;53.128;17.966;2023-07-28T03:55:08;100028.40;;;18.04;60.44
76137;BME280;68622;53.128;17.966;2023-07-28T03:57:35;100026.08;;;18.01;60.94
76137;BME280;68622;53.128;17.966;2023-07-28T04:00:01;100028.76;;;18.02;60.83
76137;BME280;68622;53.128;17.966;2023-07-28T04:02:39;100027.38;;;18.02;62.24
76137;BME280;68622;53.128;17.966;2023-07-28T04:05:05;100027.17;;;18.04;62.20
76137;BME280;68622;53.128;17.966;2023-07-28T04:07:32;100027.83;;;18.03;62.37
76137;BME280;68622;53.128;17.966;2023-07-28T04:09:59;100025.47;;;18.01;62.78
76137;BME280;68622;53.128;17.966;2023-07-28T04:12:25;100022.19;;;17.91;63.74
76137;BME280;68622;53.128;17.966;2023-07-28T04:14:52;100016.63;;;17.92;63.29
76137;BME280;68622;53.128;17.966;2023-07-28T04:17:19;100016.02;;;17.91;64.25
76137;BME280;68622;53.128;17.966;2023-07-28T04:19:45;100014.77;;;17.94;63.26
76137;BME280;68622;53.128;17.966;2023-07-28T04:22:12;100010.98;;;17.95;63.19
76137;BME280;68622;53.128;17.966;2023-07-28T04:24:40;100012.15;;;17.95;63.38
76137;BME280;68622;53.128;17.966;2023-07-28T04:27:06;100011.00;;;17.92;63.62
76137;BME280;68622;53.128;17.966;2023-07-28T04:29:33;100007.60;;;17.94;63.88
76137;BME280;68622;53.128;17.966;2023-07-28T04:32:01;100005.70;;;17.96;63.53
76137;BME280;68622;53.128;17.966;2023-07-28T04:34:33;100005.18;;;17.99;62.83
76137;BME280;68622;53.128;17.966;2023-07-28T04:37:08;100001.98;;;18.00;63.93
76137;BME280;68622;53.128;17.966;2023-07-28T04:39:44;100002.02;;;18.03;63.42
76137;BME280;68622;53.128;17.966;2023-07-28T04:42:11;100000.55;;;18.06;63.54
76137;BME280;68622;53.128;17.966;2023-07-28T04:44:38;100002.67;;;18.10;62.88
76137;BME280;68622;53.128;17.966;2023-07-28T04:47:06;100001.16;;;18.13;63.28
76137;BME280;68622;53.128;17.966;2023-07-28T04:49:33;99995.49;;;18.14;63.55
76137;BME280;68622;53.128;17.966;2023-07-28T04:52:20;99995.92;;;18.16;63.81
76137;BME280;68622;53.128;17.966;2023-07-28T04:55:03;99994.19;;;18.15;64.48
76137;BME280;68622;53.128;17.966;2023-07-28T04:57:31;99987.30;;;18.14;64.29
76137;BME280;68622;53.128;17.966;2023-07-28T04:59:57;99988.10;;;18.17;64.36
76137;BME280;68622;53.128;17.966;2023-07-28T05:02:24;99983.13;;;18.18;64.59
76137;BME280;68622;53.128;17.966;2023-07-28T05:04:51;99979.03;;;18.16;64.92
76137;BME280;68622;53.128;17.966;2023-07-28T05:07:17;99980.04;;;18.17;65.19
76137;BME280;68622;53.128;17.966;2023-07-28T05:09:44;99982.80;;;18.14;66.10
76137;BME280;68622;53.128;17.966;2023-07-28T05:12:11;99977.73;;;18.18;65.84
76137;BME280;68622;53.128;17.966;2023-07-28T05:14:42;99979.52;;;18.20;65.84
76137;BME280;68622;53.128;17.966;2023-07-28T05:17:09;99979.67;;;18.19;65.45
76137;BME280;68622;53.128;17.966;2023-07-28T05:19:44;99982.69;;;18.14;66.42
76137;BME280;68622;53.128;17.966;2023-07-28T05:22:29;99983.65;;;18.10;65.77
76137;BME280;68622;53.128;17.966;2023-07-28T05:24:56;99981.70;;;18.10;65.35
76137;BME280;68622;53.128;17.966;2023-07-28T05:27:26;99981.90;;;18.08;66.79
76137;BME280;68622;53.128;17.966;2023-07-28T05:29:53;99980.80;;;18.03;67.47
76137;BME280;68622;53.128;17.966;2023-07-28T05:32:20;99975.33;;;18.02;67.15
76137;BME280;68622;53.128;17.966;2023-07-28T05:34:59;99972.79;;;18.01;66.37
76137;BME280;68622;53.128;17.966;2023-07-28T05:37:26;99977.92;;;17.93;67.55
76137;BME280;68622;53.128;17.966;2023-07-28T05:39:52;99976.70;;;17.94;66.60
76137;BME280;68622;53.128;17.966;2023-07-28T05:42:20;99973.73;;;17.80;68.15
76137;BME280;68622;53.128;17.966;2023-07-28T05:44:47;99978.84;;;17.80;67.46
76137;BME280;68622;53.128;17.966;2023-07-28T05:47:14;99979.13;;;17.82;66.70
76137;BME280;68622;53.128;17.966;2023-07-28T05:49:40;99972.69;;;17.82;67.69
76137;BME280;68622;53.128;17.966;2023-07-28T05:52:07;99970.06;;;17.81;67.52
76137;BME280;68622;53.128;17.966;2023-07-28T05:54:34;99969.08;;;17.78;68.02
76137;BME280;68622;53.128;17.966;2023-07-28T05:57:00;99970.75;;;17.80;67.72
76137;BME280;68622;53.128;17.966;2023-07-28T05:59:27;99973.48;;;17.79;68.45
76137;BME280;68622;53.128;17.966;2023-07-28T06:01:54;99976.96;;;17.75;68.92
76137;BME280;68622;53.128;17.966;2023-07-28T06:04:38;99976.22;;;17.68;69.31
76137;BME280;68622;53.128;17.966;2023-07-28T06:07:05;99973.71;;;17.65;69.53
76137;BME280;68622;53.128;17.966;2023-07-28T06:09:32;99970.77;;;17.66;69.69
76137;BME280;68622;53.128;17.966;2023-07-28T06:11:59;99971.02;;;17.62;70.92
76137;BME280;68622;53.128;17.966;2023-07-28T06:14:27;99971.27;;;17.59;70.82
76137;BME280;68622;53.128;17.966;2023-07-28T06:16:56;99972.21;;;17.52;71.31
76137;BME280;68622;53.128;17.966;2023-07-28T06:19:24;99969.57;;;17.57;70.29
76137;BME280;68622;53.128;17.966;2023-07-28T06:21:51;99973.69;;;17.59;71.32
76137;BME280;68622;53.128;17.966;2023-07-28T06:24:20;99976.73;;;17.60;71.22
76137;BME280;68622;53.128;17.966;2023-07-28T06:26:46;99978.34;;;17.57;70.89
76137;BME280;68622;53.128;17.966;2023-07-28T06:29:13;99972.87;;;17.59;70.40
76137;BME280;68622;53.128;17.966;2023-07-28T06:31:40;99967.94;;;17.55;71.50
76137;BME280;68622;53.128;17.966;2023-07-28T06:34:07;99964.75;;;17.59;70.10
76137;BME280;68622;53.128;17.966;2023-07-28T06:36:34;99968.11;;;17.61;69.43
76137;BME280;68622;53.128;17.966;2023-07-28T06:39:01;99968.91;;;17.57;70.80
76137;BME280;68622;53.128;17.966;2023-07-28T06:41:28;99957.35;;;17.60;70.66
76137;BME280;68622;53.128;17.966;2023-07-28T06:43:59;99955.02;;;17.62;71.15
76137;BME280;68622;53.128;17.966;2023-07-28T06:46:27;99949.52;;;17.63;70.77
76137;BME280;68622;53.128;17.966;2023-07-28T06:48:53;99942.54;;;17.66;69.71
76137;BME280;68622;53.128;17.966;2023-07-28T06:51:20;99943.27;;;17.70;69.69
76137;BME280;68622;53.128;17.966;2023-07-28T06:53:47;99947.21;;;17.63;71.78
76137;BME280;68622;53.128;17.966;2023-07-28T06:56:13;99935.02;;;17.70;70.35
76137;BME280;68622;53.128;17.966;2023-07-28T06:58:40;99936.65;;;17.78;70.63
76137;BME280;68622;53.128;17.966;2023-07-28T07:01:07;99943.73;;;17.78;71.82
76137;BME280;68622;53.128;17.966;2023-07-28T07:03:37;99934.39;;;17.82;72.03
76137;BME280;68622;53.128;17.966;2023-07-28T07:06:04;99941.40;;;17.94;71.30
76137;BME280;68622;53.128;17.966;2023-07-28T07:08:30;99947.92;;;18.08;71.40
76137;BME280;68622;53.128;17.966;2023-07-28T07:10:57;99946.91;;;18.15;70.80
76137;BME280;68622;53.128;17.966;2023-07-28T07:13:24;99949.14;;;18.19;70.01
76137;BME280;68622;53.128;17.966;2023-07-28T07:15:51;99949.79;;;18.18;71.10
76137;BME280;68622;53.128;17.966;2023-07-28T07:18:17;99950.31;;;18.19;70.49
76137;BME280;68622;53.128;17.966;2023-07-28T07:20:44;99952.54;;;18.18;71.32
76137;BME280;68622;53.128;17.966;2023-07-28T07:23:11;99955.65;;;18.19;70.77
76137;BME280;68622;53.128;17.966;2023-07-28T07:25:38;99957.89;;;18.21;70.29
76137;BME280;68622;53.128;17.966;2023-07-28T07:28:04;99957.45;;;18.24;69.84
76137;BME280;68622;53.128;17.966;2023-07-28T07:30:34;99957.53;;;18.30;69.80
76137;BME280;68622;53.128;17.966;2023-07-28T07:33:00;99959.41;;;18.34;70.27
76137;BME280;68622;53.128;17.966;2023-07-28T07:35:27;99960.27;;;18.32;70.95
76137;BME280;68622;53.128;17.966;2023-07-28T07:37:54;99951.32;;;18.32;70.66
76137;BME280;68622;53.128;17.966;2023-07-28T07:40:20;99950.30;;;18.37;70.52
76137;BME280;68622;53.128;17.966;2023-07-28T07:42:48;99957.64;;;18.37;70.81
76137;BME280;68622;53.128;17.966;2023-07-28T07:45:15;99959.66;;;18.35;70.84
76137;BME280;68622;53.128;17.966;2023-07-28T07:47:42;99953.83;;;18.34;71.16
76137;BME280;68622;53.128;17.966;2023-07-28T07:50:10;99951.23;;;18.35;70.57
76137;BME280;68622;53.128;17.966;2023-07-28T07:52:37;99955.62;;;18.38;70.95
76137;BME280;68622;53.128;17.966;2023-07-28T07:55:05;99957.15;;;18.41;71.17
76137;BME280;68622;53.128;17.966;2023-07-28T07:57:32;99960.51;;;18.46;70.50
76137;BME280;68622;53.128;17.966;2023-07-28T07:59:59;99954.18;;;18.46;70.86
76137;BME280;68622;53.128;17.966;2023-07-28T08:02:25;99949.77;;;18.47;70.63
76137;BME280;68622;53.128;17.966;2023-07-28T08:04:52;99940.64;;;18.52;70.05
76137;BME280;68622;53.128;17.966;2023-07-28T08:07:22;99941.19;;;18.56;70.48
76137;BME280;68622;53.128;17.966;2023-07-28T08:09:50;99952.08;;;18.57;71.17
76137;BME280;68622;53.128;17.966;2023-07-28T08:12:17;99954.59;;;18.60;71.15
76137;BME280;68622;53.128;17.966;2023-07-28T08:14:43;99959.36;;;18.54;71.67
76137;BME280;68622;53.128;17.966;2023-07-28T08:17:12;99962.16;;;18.54;71.58
76137;BME280;68622;53.128;17.966;2023-07-28T08:19:39;99960.44;;;18.60;70.80
76137;BME280;68622;53.128;17.966;2023-07-28T08:22:05;99962.66;;;18.67;70.54
76137;BME280;68622;53.128;17.966;2023-07-28T08:24:32;99956.52;;;18.76;70.24
76137;BME280;68622;53.128;17.966;2023-07-28T08:26:58;99954.96;;;18.82;70.89
76137;BME280;68622;53.128;17.966;2023-07-28T08:29:25;99956.69;;;18.87;70.47
76137;BME280;68622;53.128;17.966;2023-07-28T08:31:52;99959.61;;;18.98;70.31
76137;BME280;68622;53.128;17.966;2023-07-28T08:34:18;99963.66;;;19.02;71.36
76137;BME280;68622;53.128;17.966;2023-07-28T08:36:45;99963.99;;;18.98;72.35
76137;BME280;68622;53.128;17.966;2023-07-28T08:39:12;99963.05;;;19.01;72.03
76137;BME280;68622;53.128;17.966;2023-07-28T08:41:39;99958.50;;;19.05;71.61
76137;BME280;68622;53.128;17.966;2023-07-28T08:44:07;99962.42;;;19.08;71.26
76137;BME280;68622;53.128;17.966;2023-07-28T08:46:33;99963.27;;;19.07;71.93
76137;BME280;68622;53.128;17.966;2023-07-28T08:49:02;99967.16;;;19.10;71.33
76137;BME280;68622;53.128;17.966;2023-07-28T08:51:28;99965.44;;;19.14;70.59
76137;BME280;68622;53.128;17.966;2023-07-28T08:53:55;99961.08;;;19.21;70.38
76137;BME280;68622;53.128;17.966;2023-07-28T08:56:22;99958.12;;;19.28;70.17
76137;BME280;68622;53.128;17.966;2023-07-28T08:58:57;99952.50;;;19.39;69.70
76137;BME280;68622;53.128;17.966;2023-07-28T09:01:23;99948.76;;;19.55;69.43
76137;BME280;68622;53.128;17.966;2023-07-28T09:03:50;99943.77;;;19.75;69.66
76137;BME280;68622;53.128;17.966;2023-07-28T09:06:16;99943.67;;;19.88;68.99
76137;BME280;68622;53.128;17.966;2023-07-28T09:08:45;99944.11;;;20.00;68.88
76137;BME280;68622;53.128;17.966;2023-07-28T09:11:13;99939.22;;;20.17;68.74
76137;BME280;68622;53.128;17.966;2023-07-28T09:13:41;99939.20;;;20.35;68.95
76137;BME280;68622;53.128;17.966;2023-07-28T09:16:19;99937.79;;;20.48;68.95
76137;BME280;68622;53.128;17.966;2023-07-28T09:18:46;99939.56;;;20.56;68.47
76137;BME280;68622;53.128;17.966;2023-07-28T09:21:20;99939.59;;;20.64;68.34
76137;BME280;68622;53.128;17.966;2023-07-28T09:23:48;99938.48;;;20.65;67.59
76137;BME280;68622;53.128;17.966;2023-07-28T09:26:15;99936.64;;;20.66;67.37
76137;BME280;68622;53.128;17.966;2023-07-28T09:28:42;99934.62;;;20.71;66.90
76137;BME280;68622;53.128;17.966;2023-07-28T09:31:09;99935.96;;;20.77;66.73
76137;BME280;68622;53.128;17.966;2023-07-28T09:33:37;99932.77;;;20.80;66.50
76137;BME280;68622;53.128;17.966;2023-07-28T09:36:12;99934.60;;;20.81;66.81
76137;BME280;68622;53.128;17.966;2023-07-28T09:38:42;99935.67;;;20.78;66.71
76137;BME280;68622;53.128;17.966;2023-07-28T09:41:10;99936.87;;;20.70;67.04
76137;BME280;68622;53.128;17.966;2023-07-28T09:43:38;99940.08;;;20.66;67.26
76137;BME280;68622;53.128;17.966;2023-07-28T09:46:09;99939.02;;;20.71;67.03
76137;BME280;68622;53.128;17.966;2023-07-28T09:48:44;99936.09;;;20.78;66.81
76137;BME280;68622;53.128;17.966;2023-07-28T09:51:16;99937.33;;;20.84;66.88
76137;BME280;68622;53.128;17.966;2023-07-28T09:53:49;99935.66;;;20.92;66.78
76137;BME280;68622;53.128;17.966;2023-07-28T09:56:27;99932.56;;;21.05;66.40
76137;BME280;68622;53.128;17.966;2023-07-28T09:58:56;99927.34;;;21.16;66.41
76137;BME280;68622;53.128;17.966;2023-07-28T10:01:25;99924.02;;;21.26;66.41
76137;BME280;68622;53.128;17.966;2023-07-28T10:03:53;99923.60;;;21.34;66.13
76137;BME280;68622;53.128;17.966;2023-07-28T10:06:23;99926.19;;;21.38;65.77
76137;BME280;68622;53.128;17.966;2023-07-28T10:08:53;99924.29;;;21.39;65.55
76137;BME280;68622;53.128;17.966;2023-07-28T10:11:29;99922.86;;;21.46;65.68
76137;BME280;68622;53.128;17.966;2023-07-28T10:13:56;99919.83;;;21.59;65.26
76137;BME280;68622;53.128;17.966;2023-07-28T10:16:31;99920.73;;;21.71;64.99
76137;BME280;68622;53.128;17.966;2023-07-28T10:19:05;99918.60;;;21.82;64.63
76137;BME280;68622;53.128;17.966;2023-07-28T10:21:39;99919.75;;;21.95;64.41
76137;BME280;68622;53.128;17.966;2023-07-28T10:24:08;99912.52;;;22.11;64.35
76137;BME280;68622;53.128;17.966;2023-07-28T10:26:36;99916.45;;;22.29;63.90
76137;BME280;68622;53.128;17.966;2023-07-28T10:29:09;99917.45;;;22.39;63.45
76137;BME280;68622;53.128;17.966;2023-07-28T10:31:37;99917.11;;;22.57;63.69
76137;BME280;68622;53.128;17.966;2023-07-28T10:34:17;99909.09;;;22.88;62.87
76137;BME280;68622;53.128;17.966;2023-07-28T10:36:45;99910.93;;;23.09;62.77
76137;BME280;68622;53.128;17.966;2023-07-28T10:39:17;99904.02;;;23.25;62.38
76137;BME280;68622;53.128;17.966;2023-07-28T10:42:03;99904.41;;;23.33;62.09
76137;BME280;68622;53.128;17.966;2023-07-28T10:44:33;99904.57;;;23.29;61.89
76137;BME280;68622;53.128;17.966;2023-07-28T10:47:00;99905.73;;;23.28;63.47
76137;BME280;68622;53.128;17.966;2023-07-28T10:49:28;99909.04;;;23.49;62.90
76137;BME280;68622;53.128;17.966;2023-07-28T10:51:55;99914.04;;;23.47;61.25
76137;BME280;68622;53.128;17.966;2023-07-28T10:54:22;99913.82;;;23.38;61.31
76137;BME280;68622;53.128;17.966;2023-07-28T10:56:49;99917.52;;;23.15;62.81
76137;BME280;68622;53.128;17.966;2023-07-28T10:59:16;99920.67;;;23.07;62.91
76137;BME280;68622;53.128;17.966;2023-07-28T11:01:43;99925.68;;;23.06;62.69
76137;BME280;68622;53.128;17.966;2023-07-28T11:04:18;99931.57;;;23.22;63.09
76137;BME280;68622;53.128;17.966;2023-07-28T11:06:48;99936.98;;;23.36;62.09
76137;BME280;68622;53.128;17.966;2023-07-28T11:09:21;99937.11;;;23.57;61.94
76137;BME280;68622;53.128;17.966;2023-07-28T11:11:49;99935.20;;;23.78;61.96
76137;BME280;68622;53.128;17.966;2023-07-28T11:14:17;99934.10;;;23.88;62.20
76137;BME280;68622;53.128;17.966;2023-07-28T11:16:44;99933.99;;;23.91;63.84
76137;BME280;68622;53.128;17.966;2023-07-28T11:19:13;99940.19;;;23.74;62.34
76137;BME280;68622;53.128;17.966;2023-07-28T11:21:41;99943.33;;;23.78;62.43
76137;BME280;68622;53.128;17.966;2023-07-28T11:24:08;99946.89;;;23.71;62.25
76137;BME280;68622;53.128;17.966;2023-07-28T11:26:39;99939.91;;;23.77;62.60
76137;BME280;68622;53.128;17.966;2023-07-28T11:29:06;99934.97;;;23.96;62.71
76137;BME280;68622;53.128;17.966;2023-07-28T11:31:34;99930.35;;;24.06;61.65
76137;BME280;68622;53.128;17.966;2023-07-28T11:34:00;99926.49;;;24.11;61.30
76137;BME280;68622;53.128;17.966;2023-07-28T11:36:29;99926.10;;;23.99;60.32
76137;BME280;68622;53.128;17.966;2023-07-28T11:38:58;99929.14;;;24.10;60.50
76137;BME280;68622;53.128;17.966;2023-07-28T11:41:25;99930.71;;;24.06;60.78
76137;BME280;68622;53.128;17.966;2023-07-28T11:43:52;99933.14;;;23.87;60.65
76137;BME280;68622;53.128;17.966;2023-07-28T11:46:41;99932.23;;;23.74;62.33
76137;BME280;68622;53.128;17.966;2023-07-28T11:49:13;99931.07;;;23.69;61.56
76137;BME280;68622;53.128;17.966;2023-07-28T11:51:41;99933.30;;;23.75;61.76
76137;BME280;68622;53.128;17.966;2023-07-28T11:54:14;99934.88;;;23.93;61.23
76137;BME280;68622;53.128;17.966;2023-07-28T11:56:42;99931.48;;;24.20;60.44
76137;BME280;68622;53.128;17.966;2023-07-28T11:59:11;99928.23;;;24.33;59.73
76137;BME280;68622;53.128;17.966;2023-07-28T12:01:57;99932.35;;;24.21;60.28
76137;BME280;68622;53.128;17.966;2023-07-28T12:04:29;99939.11;;;24.06;60.22
76137;BME280;68622;53.128;17.966;2023-07-28T12:07:16;99943.52;;;23.70;60.05
76137;BME280;68622;53.128;17.966;2023-07-28T12:12:13;99947.48;;;23.27;62.47
76137;BME280;68622;53.128;17.966;2023-07-28T12:14:40;99949.25;;;23.28;62.69
76137;BME280;68622;53.128;17.966;2023-07-28T12:17:18;99946.18;;;23.39;61.69
76137;BME280;68622;53.128;17.966;2023-07-28T12:20:03;99943.85;;;23.59;61.06
76137;BME280;68622;53.128;17.966;2023-07-28T12:22:38;99944.60;;;23.80;60.05
76137;BME280;68622;53.128;17.966;2023-07-28T12:25:05;99945.80;;;23.91;59.88
76137;BME280;68622;53.128;17.966;2023-07-28T12:27:32;99943.73;;;23.98;60.10
76137;BME280;68622;53.128;17.966;2023-07-28T12:29:59;99940.02;;;24.22;59.77
76137;BME280;68622;53.128;17.966;2023-07-28T12:32:26;99933.24;;;24.37;58.96
76137;BME280;68622;53.128;17.966;2023-07-28T12:34:52;99929.11;;;24.54;58.53
76137;BME280;68622;53.128;17.966;2023-07-28T12:37:21;99934.41;;;24.65;58.50
76137;BME280;68622;53.128;17.966;2023-07-28T12:39:48;99929.05;;;24.73;57.82
76137;BME280;68622;53.128;17.966;2023-07-28T12:42:15;99933.10;;;24.74;57.95
76137;BME280;68622;53.128;17.966;2023-07-28T12:44:42;99933.79;;;24.94;57.78
76137;BME280;68622;53.128;17.966;2023-07-28T12:47:09;99934.90;;;25.19;57.54
76137;BME280;68622;53.128;17.966;2023-07-28T12:49:35;99934.38;;;25.30;55.71
76137;BME280;68622;53.128;17.966;2023-07-28T12:52:05;99934.38;;;25.29;55.26
76137;BME280;68622;53.128;17.966;2023-07-28T12:54:33;99934.44;;;25.26;55.69
76137;BME280;68622;53.128;17.966;2023-07-28T12:57:00;99944.70;;;25.01;55.84
76137;BME280;68622;53.128;17.966;2023-07-28T12:59:28;99950.81;;;24.90;56.38